Time;durP1;ratioP1;P1;durP2;ratioP2;P2;SDS_P1;SDS_P2;PMS_P1;PMS_P2;Temp;Humidity;BMP_temperature;BMP_pressure;BME280_temperature;BME280_humidity;BME280_pressure;Samples;Min_cycle;Max_cycle;Signal;HPM_P1;HPM_P2
2024/01/07 00:01:59;;;;;;;64.40;38.73;;;;;;;6.47;100.00;98259.97;5031704;28;20671;-70
2024/01/07 00:04:27;;;;;;;59.83;36.53;;;;;;;6.49;100.00;98244.75;5031892;28;20589;-70
2024/01/07 00:06:54;;;;;;;56.67;36.50;;;;;;;6.61;100.00;98257.13;5032392;28;20228;-70
2024/01/07 00:09:20;;;;;;;59.23;36.10;;;;;;;6.55;100.00;98212.28;5031553;28;20243;-70
2024/01/07 00:11:47;;;;;;;56.70;35.33;;;;;;;6.61;100.00;98208.88;5031183;28;20191;-70
2024/01/07 00:14:16;;;;;;;70.57;37.90;;;;;;;6.41;100.00;98184.28;5031757;28;20243;-71
2024/01/07 00:16:43;;;;;;;59.70;35.67;;;;;;;6.40;100.00;98143.13;5031776;28;20218;-71
2024/01/07 00:19:09;;;;;;;62.67;36.40;;;;;;;6.50;100.00;98146.16;5031461;28;20615;-71
2024/01/07 00:21:37;;;;;;;63.37;37.30;;;;;;;6.56;100.00;98148.78;5031906;28;20193;-70
2024/01/07 00:24:04;;;;;;;54.23;36.23;;;;;;;6.59;100.00;98172.13;5031801;28;20196;-70
2024/01/07 00:26:31;;;;;;;57.23;36.33;;;;;;;6.63;100.00;98176.00;5031389;28;20668;-70
2024/01/07 00:28:58;;;;;;;56.93;36.50;;;;;;;6.57;100.00;98176.00;5031217;28;20234;-70
2024/01/07 00:31:25;;;;;;;53.77;34.23;;;;;;;6.62;100.00;98173.56;5031744;28;20193;-69
2024/01/07 00:33:51;;;;;;;49.07;34.20;;;;;;;6.66;100.00;98183.47;5031393;28;20241;-70
2024/01/07 00:36:18;;;;;;;50.17;34.03;;;;;;;6.62;100.00;98155.88;5031117;28;20639;-70
2024/01/07 00:38:46;;;;;;;52.03;33.53;;;;;;;6.70;100.00;98157.53;5031514;28;20193;-70
2024/01/07 00:41:13;;;;;;;51.30;34.00;;;;;;;6.69;100.00;98159.34;5031457;28;20195;-70
2024/01/07 00:43:40;;;;;;;56.67;33.07;;;;;;;6.60;100.00;98122.81;5031665;28;20203;-71
2024/01/07 00:46:07;;;;;;;54.13;32.77;;;;;;;6.80;100.00;98144.72;5031341;28;20193;-70
2024/01/07 00:48:34;;;;;;;51.33;32.00;;;;;;;6.78;100.00;98159.94;5031510;28;20203;-70
2024/01/07 00:51:01;;;;;;;50.23;32.37;;;;;;;6.87;100.00;98133.16;5031390;28;20193;-71
2024/01/07 00:53:28;;;;;;;49.73;31.87;;;;;;;6.99;100.00;98122.75;5031560;28;20197;-71
2024/01/07 00:55:56;;;;;;;47.57;32.77;;;;;;;7.12;100.00;98117.44;5030934;28;20224;-70
2024/01/07 00:58:22;;;;;;;50.67;32.40;;;;;;;7.21;100.00;98106.47;5031056;28;20257;-71
2024/01/07 01:00:49;;;;;;;51.73;31.77;;;;;;;7.28;100.00;98111.72;5030991;28;20735;-70
2024/01/07 01:03:16;;;;;;;49.73;32.13;;;;;;;7.27;100.00;98104.81;5031295;28;20199;-73
2024/01/07 01:05:42;;;;;;;47.73;31.40;;;;;;;7.38;100.00;98098.84;5031212;28;20201;-72
2024/01/07 01:08:09;;;;;;;57.10;31.73;;;;;;;7.42;100.00;98063.09;5031605;28;20197;-72
2024/01/07 01:10:36;;;;;;;47.27;30.77;;;;;;;7.43;100.00;98062.09;5034636;28;20660;-73
2024/01/07 01:13:04;;;;;;;42.83;29.73;;;;;;;7.37;100.00;98012.72;5035084;28;20233;-72
2024/01/07 01:15:31;;;;;;;48.00;30.70;;;;;;;7.37;100.00;97988.97;5034889;28;20193;-73
2024/01/07 01:17:58;;;;;;;50.30;30.97;;;;;;;7.44;100.00;97998.50;5034837;28;20224;-73
2024/01/07 01:20:24;;;;;;;45.47;28.73;;;;;;;7.43;100.00;97998.69;5034499;28;20251;-71
2024/01/07 01:22:51;;;;;;;45.80;29.50;;;;;;;7.53;100.00;98004.31;5034875;28;20255;-71
2024/01/07 01:25:18;;;;;;;45.27;30.43;;;;;;;7.63;100.00;98007.31;5034441;28;20197;-72
2024/01/07 01:27:45;;;;;;;49.77;30.70;;;;;;;7.72;100.00;98004.16;5034436;28;20628;-69
2024/01/07 01:30:13;;;;;;;46.00;30.90;;;;;;;7.72;100.00;98004.16;5034704;28;20282;-69
2024/01/07 01:32:40;;;;;;;57.00;30.40;;;;;;;7.73;100.00;98002.34;5034945;28;20189;-70
2024/01/07 01:35:08;;;;;;;42.20;30.10;;;;;;;7.52;100.00;97971.00;5034230;28;20201;-70
2024/01/07 01:37:34;;;;;;;46.20;30.03;;;;;;;7.43;100.00;97954.59;5034193;28;20219;-69
2024/01/07 01:40:01;;;;;;;51.57;31.50;;;;;;;7.48;100.00;97938.09;5034118;28;20665;-71
2024/01/07 01:42:28;;;;;;;45.17;30.30;;;;;;;7.62;100.00;97919.31;5034430;28;20193;-71
2024/01/07 01:44:59;;;;;;;43.33;29.87;;;;;;;7.72;100.00;97921.47;5034443;28;20247;-71
2024/01/07 01:47:27;;;;;;;46.83;30.20;;;;;;;7.80;100.00;97923.84;5034499;28;20200;-70
2024/01/07 01:49:54;;;;;;;44.57;29.10;;;;;;;7.92;100.00;97903.59;5034456;28;20255;-71
2024/01/07 01:52:21;;;;;;;45.90;30.03;;;;;;;8.01;100.00;97894.34;5034001;28;20665;-73
2024/01/07 01:54:48;;;;;;;53.53;28.67;;;;;;;8.10;100.00;97898.31;5034382;28;20193;-71
2024/01/07 01:57:20;;;;;;;46.37;30.17;;;;;;;8.17;100.00;97883.22;5033772;28;20220;-71
2024/01/07 01:59:47;;;;;;;46.47;28.57;;;;;;;8.20;100.00;97902.06;5033891;28;20247;-72
2024/01/07 02:02:14;;;;;;;42.63;29.13;;;;;;;8.26;100.00;97903.06;5031454;28;20223;-70
2024/01/07 02:04:43;;;;;;;44.87;29.17;;;;;;;8.26;100.00;97895.13;5032989;28;20205;-70
2024/01/07 02:07:10;;;;;;;42.57;27.93;;;;;;;8.06;100.00;97878.63;5033689;28;20779;-70
2024/01/07 02:09:37;;;;;;;45.23;28.97;;;;;;;8.07;100.00;97857.28;5033652;28;20201;-71
2024/01/07 02:12:05;;;;;;;46.43;28.67;;;;;;;8.14;100.00;97860.66;5033991;28;20197;-70
2024/01/07 02:14:32;;;;;;;46.13;28.67;;;;;;;8.20;100.00;97858.94;5033883;28;20193;-71
2024/01/07 02:16:59;;;;;;;49.20;28.63;;;;;;;8.26;100.00;97852.81;5033453;28;20221;-71
2024/01/07 02:19:25;;;;;;;47.73;27.77;;;;;;;8.29;100.00;97858.47;5033803;28;20251;-71
2024/01/07 02:21:53;;;;;;;45.77;27.67;;;;;;;8.28;100.00;97845.47;5033702;28;20228;-70
2024/01/07 02:24:22;;;;;;;44.30;28.03;;;;;;;8.39;100.00;97845.53;5033492;28;20255;-71
2024/01/07 02:26:49;;;;;;;46.83;28.13;;;;;;;8.45;100.00;97857.09;5033301;28;20623;-71
2024/01/07 02:29:16;;;;;;;43.70;27.20;;;;;;;8.47;100.00;97839.13;5033399;28;20225;-71
2024/01/07 02:31:42;;;;;;;40.13;27.23;;;;;;;8.45;100.00;97836.69;5033633;28;20192;-71
2024/01/07 02:34:10;;;;;;;36.97;26.37;;;;;;;8.39;100.00;97826.22;5033613;28;20255;-72
2024/01/07 02:36:36;;;;;;;42.90;28.63;;;;;;;8.37;100.00;97801.84;5032154;28;20797;-71
2024/01/07 02:39:03;;;;;;;41.17;27.50;;;;;;;8.43;100.00;97790.34;5013397;28;20240;-71
2024/01/07 02:41:31;;;;;;;46.70;28.47;;;;;;;8.46;100.00;97774.81;5013598;28;20240;-71
2024/01/07 02:43:58;;;;;;;47.20;28.73;;;;;;;8.51;100.00;97760.94;5013345;28;20736;-71
2024/01/07 02:46:25;;;;;;;51.33;28.87;;;;;;;8.57;100.00;97775.88;5013423;28;20255;-71
2024/01/07 02:48:52;;;;;;;46.43;27.13;;;;;;;8.66;100.00;97764.78;5013235;28;20206;-71
2024/01/07 02:51:18;;;;;;;45.23;29.13;;;;;;;8.75;100.00;97774.03;5013063;28;20584;-70
2024/01/07 02:53:45;;;;;;;43.80;28.10;;;;;;;8.85;100.00;97760.22;5013189;28;20624;-70
2024/01/07 02:56:12;;;;;;;43.33;28.40;;;;;;;8.90;100.00;97789.47;5031654;28;20547;-70
2024/01/07 02:58:40;;;;;;;47.53;28.53;;;;;;;8.93;100.00;97796.94;5033074;28;20229;-70
2024/01/07 03:01:10;;;;;;;43.73;28.53;;;;;;;9.03;100.00;97797.22;5032646;28;20644;-70
2024/01/07 03:03:37;;;;;;;49.23;29.50;;;;;;;9.10;100.00;97785.47;5032663;28;20197;-71
2024/01/07 03:06:04;;;;;;;42.40;27.90;;;;;;;9.14;100.00;97805.19;5032879;28;20193;-71
2024/01/07 03:08:30;;;;;;;44.13;27.57;;;;;;;9.10;100.00;97803.19;5032679;28;20197;-71
2024/01/07 03:10:57;;;;;;;41.03;26.30;;;;;;;9.06;100.00;97812.63;5032493;28;20193;-71
2024/01/07 03:13:24;;;;;;;37.97;26.70;;;;;;;9.17;100.00;97815.31;5032492;28;20692;-71
2024/01/07 03:15:52;;;;;;;38.57;25.47;;;;;;;9.25;100.00;97822.94;5032911;28;20213;-71
2024/01/07 03:18:18;;;;;;;39.33;26.37;;;;;;;9.13;100.00;97803.56;5032533;28;20217;-71
2024/01/07 03:20:45;;;;;;;43.10;27.07;;;;;;;9.20;100.00;97798.16;5032733;28;20197;-70
2024/01/07 03:23:12;;;;;;;39.23;26.30;;;;;;;9.31;100.00;97806.13;5032562;28;20197;-70
2024/01/07 03:25:38;;;;;;;40.73;27.20;;;;;;;9.43;100.00;97792.88;5032354;28;20760;-71
2024/01/07 03:28:06;;;;;;;35.00;24.37;;;;;;;9.48;100.00;97774.47;5032452;28;20197;-71
2024/01/07 03:30:32;;;;;;;37.90;26.23;;;;;;;9.60;100.00;97788.53;5032452;28;20294;-71
2024/01/07 03:33:00;;;;;;;36.90;25.67;;;;;;;9.62;100.00;97797.03;5032256;28;20201;-71
2024/01/07 03:35:27;;;;;;;46.27;26.93;;;;;;;9.63;100.00;97803.94;5032163;28;20617;-71
2024/01/07 03:37:54;;;;;;;49.23;30.93;;;;;;;9.58;100.00;97787.94;5032072;28;20216;-71
2024/01/07 03:40:21;;;;;;;48.93;30.70;;;;;;;9.44;100.00;97789.19;5032061;28;20641;-70
2024/01/07 03:42:47;;;;;;;47.97;30.00;;;;;;;9.46;100.00;97784.47;5031972;28;20660;-71
2024/01/07 03:45:14;;;;;;;47.90;29.80;;;;;;;9.49;100.00;97791.97;5032242;28;20224;-71
2024/01/07 03:47:41;;;;;;;47.10;28.40;;;;;;;9.53;100.00;97783.34;5031918;28;20661;-71
2024/01/07 03:50:09;;;;;;;47.60;29.30;;;;;;;9.58;100.00;97779.97;5032195;28;20193;-71
2024/01/07 03:52:36;;;;;;;48.63;28.97;;;;;;;9.52;100.00;97754.41;5031816;28;20243;-71
2024/01/07 03:55:03;;;;;;;39.00;27.67;;;;;;;9.56;100.00;97763.50;5031739;28;20190;-70
2024/01/07 03:57:30;;;;;;;47.43;28.97;;;;;;;9.53;100.00;97771.91;5031648;28;20654;-71
2024/01/07 03:59:56;;;;;;;42.87;29.03;;;;;;;9.39;100.00;97781.94;5031947;28;20197;-72
2024/01/07 04:02:23;;;;;;;43.53;29.23;;;;;;;9.45;100.00;97775.72;5031611;28;20247;-71
2024/01/07 04:04:50;;;;;;;42.90;27.77;;;;;;;9.44;100.00;97763.50;5031683;28;20200;-70
2024/01/07 04:07:18;;;;;;;75.57;44.20;;;;;;;9.44;100.00;97742.28;5031826;28;20271;-70
2024/01/07 04:09:45;;;;;;;57.90;35.17;;;;;;;9.43;100.00;97737.22;5031749;28;20200;-69
2024/01/07 04:12:12;;;;;;;39.63;28.10;;;;;;;9.26;100.00;97717.78;5031824;28;20225;-69
2024/01/07 04:14:38;;;;;;;47.63;30.50;;;;;;;9.23;100.00;97705.78;5031575;28;20664;-70
2024/01/07 04:17:05;;;;;;;47.63;30.43;;;;;;;9.30;100.00;97687.13;5031552;28;20294;-71
2024/01/07 04:19:32;;;;;;;56.63;30.03;;;;;;;9.30;100.00;97687.94;5031398;28;20251;-70
2024/01/07 04:21:58;;;;;;;46.30;29.53;;;;;;;9.35;100.00;97711.09;5031718;28;20205;-70
2024/01/07 04:24:26;;;;;;;45.67;29.60;;;;;;;9.33;100.00;97737.81;5031747;28;20198;-71
2024/01/07 04:26:53;;;;;;;45.90;30.63;;;;;;;9.15;100.00;97737.13;5031612;28;20193;-71
2024/01/07 04:29:20;;;;;;;49.50;30.20;;;;;;;9.10;100.00;97726.41;5031410;28;20233;-69
2024/01/07 04:31:46;;;;;;;48.07;30.07;;;;;;;9.22;100.00;97721.91;5031272;28;20251;-71
2024/01/07 04:34:12;;;;;;;39.93;28.63;;;;;;;9.31;100.00;97708.09;5031594;28;20200;-71
2024/01/07 04:36:39;;;;;;;45.30;29.23;;;;;;;9.41;100.00;97731.38;5031327;28;20271;-71
2024/01/07 04:39:06;;;;;;;46.47;30.43;;;;;;;9.47;100.00;97730.41;5031414;28;20294;-71
2024/01/07 04:41:34;;;;;;;42.53;29.20;;;;;;;9.46;100.00;97739.41;5031995;28;20201;-71
2024/01/07 04:44:01;;;;;;;41.67;28.53;;;;;;;9.54;100.00;97752.31;5033192;28;20247;-71
2024/01/07 04:46:28;;;;;;;45.57;29.23;;;;;;;9.54;100.00;97755.78;5035856;28;20205;-70
2024/01/07 04:48:54;;;;;;;42.73;28.57;;;;;;;9.46;100.00;97739.41;5035218;28;20254;-71
2024/01/07 04:51:21;;;;;;;41.20;28.40;;;;;;;9.34;100.00;97720.06;5035271;28;20197;-71
2024/01/07 04:53:49;;;;;;;39.57;27.03;;;;;;;9.43;100.00;97721.31;5035026;28;20220;-71
2024/01/07 04:56:14;;;;;;;42.60;29.13;;;;;;;9.49;100.00;97707.16;5026446;28;20202;-70
2024/01/07 04:58:42;;;;;;;42.87;28.87;;;;;;;9.44;100.00;97709.72;5025503;28;20215;-70
2024/01/07 05:01:09;;;;;;;49.60;30.00;;;;;;;9.47;100.00;97686.19;5024570;28;20190;-71
2024/01/07 05:03:37;;;;;;;49.47;29.30;;;;;;;9.51;100.00;97694.47;5024091;28;20726;-70
2024/01/07 05:06:04;;;;;;;41.67;27.77;;;;;;;9.49;100.00;97712.47;5025905;28;20212;-70
2024/01/07 05:08:31;;;;;;;39.57;27.70;;;;;;;9.42;100.00;97719.72;5024606;28;20189;-71
2024/01/07 05:10:58;;;;;;;44.53;27.97;;;;;;;9.38;100.00;97718.56;5024178;28;20193;-70
2024/01/07 05:13:24;;;;;;;37.90;26.80;;;;;;;9.28;100.00;97710.41;5025542;28;20189;-71
2024/01/07 05:15:54;;;;;;;43.53;29.23;;;;;;;9.31;100.00;97709.97;5024190;28;20256;-70
2024/01/07 05:18:21;;;;;;;43.97;28.83;;;;;;;9.33;100.00;97702.56;5023118;28;20795;-71
2024/01/07 05:20:48;;;;;;;43.30;29.40;;;;;;;9.13;100.00;97696.81;5024981;28;20186;-71
2024/01/07 05:23:15;;;;;;;40.93;28.07;;;;;;;9.17;100.00;97705.91;5017570;28;20189;-70
2024/01/07 05:25:43;;;;;;;43.57;27.97;;;;;;;9.24;100.00;97706.63;5014868;28;20198;-70
2024/01/07 05:28:10;;;;;;;41.27;28.10;;;;;;;9.32;100.00;97711.56;5014632;28;20233;-71
2024/01/07 05:30:37;;;;;;;40.50;28.23;;;;;;;9.34;100.00;97728.00;5014974;28;20291;-70
2024/01/07 05:33:05;;;;;;;45.33;30.67;;;;;;;9.35;100.00;97709.25;5014921;28;20202;-71
2024/01/07 05:35:32;;;;;;;37.43;26.80;;;;;;;9.33;100.00;97702.56;5014589;28;20194;-71
2024/01/07 05:37:59;;;;;;;40.40;27.20;;;;;;;9.37;100.00;97687.81;5026728;28;20270;-71
2024/01/07 05:40:26;;;;;;;40.07;27.30;;;;;;;9.41;100.00;97684.50;5034257;28;20664;-71
2024/01/07 05:42:52;;;;;;;41.13;28.30;;;;;;;9.42;100.00;97698.53;5034501;28;20258;-71
2024/01/07 05:45:20;;;;;;;45.80;29.53;;;;;;;9.27;100.00;97693.69;5034164;28;20190;-72
2024/01/07 05:47:46;;;;;;;46.37;30.10;;;;;;;9.07;100.00;97698.53;5034369;28;20204;-71
2024/01/07 05:50:15;;;;;;;45.47;29.93;;;;;;;9.00;100.00;97719.03;5033985;28;20251;-71
2024/01/07 05:52:44;;;;;;;47.10;32.93;;;;;;;8.97;100.00;97713.38;5022631;28;20197;-72
2024/01/07 05:55:11;;;;;;;59.00;37.40;;;;;;;8.91;100.00;97725.69;5023813;28;20201;-72
2024/01/07 05:57:37;;;;;;;51.27;33.57;;;;;;;8.92;100.00;97731.81;5024555;28;20248;-73
2024/01/07 06:00:05;;;;;;;50.33;29.83;;;;;;;8.95;100.00;97718.13;5022897;28;20185;-73
2024/01/07 06:02:32;;;;;;;45.20;28.53;;;;;;;8.86;100.00;97711.56;5023490;28;20185;-72
2024/01/07 06:04:58;;;;;;;51.27;31.30;;;;;;;8.89;100.00;97711.06;5021787;28;20246;-73
2024/01/07 06:07:26;;;;;;;40.17;28.00;;;;;;;8.94;100.00;97705.91;5017343;28;20240;-73
2024/01/07 06:09:53;;;;;;;37.17;27.43;;;;;;;8.96;100.00;97686.13;5023291;28;20555;-72
2024/01/07 06:12:20;;;;;;;39.27;27.07;;;;;;;9.05;100.00;97666.19;5024161;28;20198;-70
2024/01/07 06:14:46;;;;;;;36.73;26.30;;;;;;;9.14;100.00;97656.88;5027741;28;20201;-69
2024/01/07 06:17:13;;;;;;;38.83;24.97;;;;;;;9.12;100.00;97674.03;5040738;28;20228;-71
2024/01/07 06:19:40;;;;;;;46.80;29.20;;;;;;;8.92;100.00;97705.31;5052764;28;20224;-69
2024/01/07 06:22:07;;;;;;;40.47;26.80;;;;;;;9.03;100.00;97718.56;5053288;28;20196;-73
2024/01/07 06:24:35;;;;;;;45.67;28.33;;;;;;;9.12;100.00;97713.75;5053116;28;20189;-70
2024/01/07 06:27:03;;;;;;;39.43;29.47;;;;;;;9.30;100.00;97713.63;5053272;28;20679;-74
2024/01/07 06:29:30;;;;;;;35.47;24.87;;;;;;;9.51;100.00;97705.06;5053507;28;20259;-73
2024/01/07 06:31:57;;;;;;;39.90;27.83;;;;;;;9.78;100.00;97699.06;5053097;28;20200;-73
2024/01/07 06:34:24;;;;;;;41.53;28.83;;;;;;;9.90;100.00;97710.44;5053574;28;20188;-69
2024/01/07 06:36:50;;;;;;;46.70;34.10;;;;;;;9.96;100.00;97698.06;5050529;28;20192;-68
2024/01/07 06:39:17;;;;;;;42.17;28.30;;;;;;;10.18;100.00;97697.19;5033252;28;20225;-67
2024/01/07 06:41:45;;;;;;;37.73;27.50;;;;;;;10.45;100.00;97682.31;5033310;28;20353;-67
2024/01/07 06:44:12;;;;;;;38.60;28.03;;;;;;;10.58;100.00;97667.94;5032638;28;20202;-68
2024/01/07 06:46:39;;;;;;;41.73;28.10;;;;;;;10.70;100.00;97666.81;5033178;28;20190;-69
2024/01/07 06:49:06;;;;;;;39.73;27.20;;;;;;;10.92;100.00;97682.84;5032932;28;20203;-69
2024/01/07 06:51:33;;;;;;;37.00;27.63;;;;;;;11.13;100.00;97694.56;5032954;28;20627;-71
2024/01/07 06:54:00;;;;;;;43.20;31.37;;;;;;;11.43;100.00;97679.06;5033006;28;20199;-69
2024/01/07 06:56:27;;;;;;;47.50;31.70;;;;;;;11.42;100.00;97688.88;5032550;28;20198;-68
2024/01/07 06:58:55;;;;;;;36.57;25.97;;;;;;;11.61;100.00;97711.53;5032837;28;20227;-76
2024/01/07 07:01:23;;;;;;;45.93;26.07;;;;;;;11.91;100.00;97730.53;5032897;28;20193;-74
2024/01/07 07:03:49;;;;;;;37.57;25.37;;;;;;;12.17;98.48;97739.63;5032762;28;20193;-77
2024/01/07 07:06:16;;;;;;;35.53;25.40;;;;;;;12.06;96.67;97744.03;5031699;28;20194;-77
2024/01/07 07:08:43;;;;;;;35.70;23.73;;;;;;;11.98;97.93;97744.44;5033687;28;20201;-69
2024/01/07 07:11:10;;;;;;;32.73;24.17;;;;;;;12.08;98.91;97730.47;5036198;28;20207;-73
2024/01/07 07:13:37;;;;;;;27.13;22.30;;;;;;;12.21;98.68;97724.75;5041130;28;20730;-72
2024/01/07 07:16:07;;;;;;;30.53;24.77;;;;;;;12.35;95.75;97732.13;5041365;28;20189;-72
2024/01/07 07:18:34;;;;;;;29.93;24.37;;;;;;;12.35;94.87;97726.78;5042693;28;20223;-72
2024/01/07 07:21:01;;;;;;;31.57;23.07;;;;;;;12.27;94.88;97729.91;5051996;28;20203;-74
2024/01/07 07:23:27;;;;;;;31.63;23.50;;;;;;;12.28;97.14;97725.34;5052288;28;20200;-70
2024/01/07 07:25:54;;;;;;;27.00;22.17;;;;;;;12.45;97.89;97734.88;5043233;28;20197;-72
2024/01/07 07:28:21;;;;;;;27.63;21.80;;;;;;;12.77;96.48;97724.25;5041854;28;20195;-73
2024/01/07 07:30:48;;;;;;;31.17;23.33;;;;;;;13.17;93.31;97745.97;5042986;28;20231;-71
2024/01/07 07:33:16;;;;;;;27.00;22.60;;;;;;;13.38;93.11;97732.53;5043479;28;20192;-72
2024/01/07 07:35:42;;;;;;;28.73;21.57;;;;;;;13.35;91.12;97738.38;5052085;28;20193;-71
2024/01/07 07:38:09;;;;;;;27.63;21.70;;;;;;;13.39;89.93;97736.00;5038437;28;20229;-70
2024/01/07 07:40:36;;;;;;;27.73;20.70;;;;;;;13.24;88.88;97735.91;5031467;28;20201;-71
2024/01/07 07:43:03;;;;;;;25.70;20.07;;;;;;;13.13;90.36;97743.00;5032229;28;20258;-71
2024/01/07 07:45:30;;;;;;;26.10;21.23;;;;;;;12.94;90.09;97747.06;5031943;28;20235;-71
2024/01/07 07:47:57;;;;;;;33.63;22.50;;;;;;;12.84;90.48;97746.19;5031573;28;20284;-69
2024/01/07 07:50:25;;;;;;;28.67;20.77;;;;;;;12.85;91.64;97748.59;5044019;28;20748;-68
2024/01/07 07:52:53;;;;;;;28.80;22.10;;;;;;;12.90;91.65;97750.50;5041132;28;20217;-68
2024/01/07 07:55:20;;;;;;;30.63;22.17;;;;;;;12.72;91.66;97741.03;5038128;28;20220;-69
2024/01/07 07:57:47;;;;;;;29.70;22.73;;;;;;;12.48;93.31;97721.06;5040988;28;20280;-70
2024/01/07 08:00:15;;;;;;;31.97;23.63;;;;;;;12.46;93.91;97725.81;5041526;28;20742;-69
2024/01/07 08:02:41;;;;;;;26.37;22.43;;;;;;;12.55;94.75;97721.69;5039655;28;20190;-68
2024/01/07 08:05:08;;;;;;;31.80;23.33;;;;;;;12.25;94.71;97713.34;5040191;28;20197;-68
2024/01/07 08:07:36;;;;;;;33.57;24.23;;;;;;;12.25;95.86;97731.19;5043202;28;20258;-67
2024/01/07 08:10:04;;;;;;;38.33;22.43;;;;;;;12.25;96.23;97710.69;5051334;28;20192;-67
2024/01/07 08:12:31;;;;;;;36.53;23.53;;;;;;;12.46;95.72;97717.84;5051567;28;20250;-69
2024/01/07 08:14:57;;;;;;;28.23;22.40;;;;;;;12.50;95.38;97724.25;5051061;28;20200;-67
2024/01/07 08:17:24;;;;;;;36.17;25.23;;;;;;;12.53;95.60;97726.44;5051281;28;20192;-69
2024/01/07 08:19:52;;;;;;;28.13;22.20;;;;;;;12.51;94.44;97717.91;5043072;28;20214;-68
2024/01/07 08:22:19;;;;;;;34.37;23.90;;;;;;;12.44;95.29;97719.16;5031236;28;20239;-69
2024/01/07 08:24:47;;;;;;;33.67;23.93;;;;;;;12.42;95.48;97711.41;5039429;28;20202;-70
2024/01/07 08:27:14;;;;;;;35.10;25.73;;;;;;;12.54;96.40;97725.38;5041566;28;20192;-71
2024/01/07 08:29:43;;;;;;;37.83;27.67;;;;;;;12.65;96.19;97732.41;5040174;28;20282;-72
2024/01/07 08:32:12;;;;;;;38.03;26.20;;;;;;;12.75;95.35;97737.03;5039619;28;20198;-76
2024/01/07 08:34:39;;;;;;;35.87;28.87;;;;;;;12.82;95.24;97746.44;5041210;28;20193;-73
2024/01/07 08:37:05;;;;;;;37.40;27.67;;;;;;;12.85;95.35;97748.59;5041470;28;20238;-73
2024/01/07 08:39:32;;;;;;;38.53;28.03;;;;;;;12.94;95.61;97735.63;5041498;28;20285;-73
2024/01/07 08:42:00;;;;;;;37.23;25.70;;;;;;;12.99;95.37;97733.81;5038605;28;20197;-74
2024/01/07 08:44:27;;;;;;;35.03;25.00;;;;;;;13.05;94.67;97727.50;5040908;28;20237;-73
2024/01/07 08:46:54;;;;;;;31.63;24.97;;;;;;;13.12;95.07;97730.75;5039402;28;20197;-74
2024/01/07 08:49:20;;;;;;;32.03;23.83;;;;;;;13.27;94.73;97728.19;5050716;28;20200;-74
2024/01/07 08:51:47;;;;;;;31.17;23.67;;;;;;;13.33;92.71;97737.84;5050970;28;20193;-74
2024/01/07 08:54:14;;;;;;;35.40;26.97;;;;;;;13.31;92.95;97736.50;5050210;28;20668;-77
2024/01/07 08:56:40;;;;;;;36.20;25.57;;;;;;;13.34;93.92;97735.94;5050603;28;20196;-76
2024/01/07 08:59:09;;;;;;;33.27;24.13;;;;;;;13.40;94.51;97735.72;5050770;28;20220;-74
2024/01/07 09:01:36;;;;;;;33.57;22.27;;;;;;;13.46;93.43;97734.72;5050931;28;20262;-73
2024/01/07 09:04:03;;;;;;;27.73;20.40;;;;;;;13.51;93.53;97734.75;5050495;28;20727;-73
2024/01/07 09:06:30;;;;;;;26.07;20.07;;;;;;;13.54;92.13;97736.91;5047096;28;20189;-76
2024/01/07 09:08:57;;;;;;;26.40;20.77;;;;;;;13.59;93.14;97741.44;5039338;28;20304;-74
2024/01/07 09:11:23;;;;;;;22.63;18.90;;;;;;;13.59;92.88;97738.78;5034900;28;20201;-76
2024/01/07 09:13:51;;;;;;;24.37;18.13;;;;;;;13.51;92.09;97732.09;5039508;28;20291;-73
2024/01/07 09:16:19;;;;;;;24.80;19.07;;;;;;;13.51;92.75;97718.75;5041177;28;20254;-77
2024/01/07 09:18:46;;;;;;;23.07;19.33;;;;;;;13.56;92.60;97718.78;5038568;28;20700;-76
2024/01/07 09:21:13;;;;;;;25.33;19.50;;;;;;;13.40;92.19;97716.28;5038111;28;20199;-77
2024/01/07 09:23:41;;;;;;;23.13;19.77;;;;;;;12.99;95.33;97699.16;5050106;28;20215;-76
2024/01/07 09:26:08;;;;;;;24.70;20.33;;;;;;;12.99;95.96;97701.84;5050153;28;20292;-76
2024/01/07 09:28:35;;;;;;;30.33;22.37;;;;;;;13.04;96.33;97691.25;5040832;28;20625;-76
2024/01/07 09:31:01;;;;;;;29.47;21.67;;;;;;;13.14;95.88;97703.81;5038438;28;20201;-76
2024/01/07 09:33:30;;;;;;;32.53;22.63;;;;;;;13.16;95.79;97702.53;5054353;28;20350;-75
2024/01/07 09:35:57;;;;;;;23.43;17.67;;;;;;;13.20;95.92;97703.63;5048824;28;20201;-75
2024/01/07 09:38:24;;;;;;;21.37;16.67;;;;;;;13.26;96.46;97702.59;5040709;28;20200;-63
2024/01/07 09:40:53;;;;;;;21.17;16.70;;;;;;;13.35;94.81;97690.38;5046509;28;20684;-64
2024/01/07 09:43:20;;;;;;;21.10;17.63;;;;;;;13.46;94.55;97692.06;5034300;28;20251;-63
2024/01/07 09:45:47;;;;;;;21.53;18.40;;;;;;;13.52;93.68;97695.56;5034092;28;20570;-62
2024/01/07 09:48:14;;;;;;;24.50;19.03;;;;;;;13.46;93.87;97686.72;5032398;28;20193;-65
2024/01/07 09:50:43;;;;;;;22.30;18.83;;;;;;;13.47;93.54;97685.66;5032550;28;20209;-64
2024/01/07 09:53:15;;;;;;;28.57;20.00;;;;;;;13.46;93.86;97681.38;5033775;28;20193;-65
2024/01/07 09:55:53;;;;;;;29.67;19.80;;;;;;;13.45;94.28;97684.31;5033536;28;20190;-63
2024/01/07 09:58:20;;;;;;;23.83;19.60;;;;;;;13.50;94.85;97677.13;5033178;28;20243;-62
2024/01/07 10:00:47;;;;;;;21.33;16.70;;;;;;;13.52;94.13;97672.34;5033022;28;20576;-63
2024/01/07 10:03:14;;;;;;;21.40;15.73;;;;;;;13.56;93.52;97670.75;5032998;28;20668;-63
2024/01/07 10:05:40;;;;;;;22.33;16.00;;;;;;;13.62;93.35;97661.72;5033420;28;20200;-63
2024/01/07 10:08:09;;;;;;;15.47;13.90;;;;;;;13.65;93.47;97655.88;5033264;28;20255;-64
2024/01/07 10:10:36;;;;;;;14.40;12.87;;;;;;;13.57;93.03;97656.38;5033391;28;20193;-62
2024/01/07 10:13:03;;;;;;;16.43;13.97;;;;;;;13.57;92.93;97643.03;5033671;28;20289;-61
2024/01/07 10:15:30;;;;;;;15.03;13.47;;;;;;;13.58;92.92;97641.16;5033436;28;20267;-62
2024/01/07 10:18:04;;;;;;;14.97;13.40;;;;;;;13.65;94.07;97631.88;5033326;28;20572;-63
2024/01/07 10:20:32;;;;;;;15.10;13.23;;;;;;;13.72;92.42;97648.41;5033361;28;20210;-62
2024/01/07 10:22:59;;;;;;;17.60;13.77;;;;;;;13.56;93.17;97617.41;5033398;28;20194;-63
2024/01/07 10:25:28;;;;;;;17.20;14.00;;;;;;;13.52;93.60;97637.66;5033701;28;20258;-63
2024/01/07 10:27:54;;;;;;;16.60;14.83;;;;;;;13.35;94.39;97594.38;5033434;28;20665;-76
2024/01/07 10:30:22;;;;;;;16.10;14.23;;;;;;;13.66;94.44;97625.47;5033738;28;20240;-76
2024/01/07 10:32:48;;;;;;;13.67;12.27;;;;;;;13.78;93.88;97620.72;5033202;28;20633;-75
2024/01/07 10:35:19;;;;;;;14.97;13.40;;;;;;;13.92;93.55;97610.31;5033444;28;20266;-76
2024/01/07 10:37:45;;;;;;;15.87;13.63;;;;;;;13.95;91.45;97610.63;5043901;28;20189;-75
2024/01/07 10:40:13;;;;;;;15.13;13.13;;;;;;;14.07;92.21;97594.34;5052474;28;20270;-75
2024/01/07 10:42:43;;;;;;;16.47;12.90;;;;;;;14.18;91.34;97604.00;5052187;28;20254;-75
2024/01/07 10:45:11;;;;;;;17.33;13.13;;;;;;;14.28;90.33;97604.84;5053328;28;20196;-74
2024/01/07 10:47:41;;;;;;;16.07;14.13;;;;;;;14.33;90.73;97594.16;5053689;28;20228;-78
2024/01/07 10:50:12;;;;;;;16.07;13.33;;;;;;;14.42;89.39;97595.22;5053742;28;20196;-77
2024/01/07 10:52:41;;;;;;;15.57;13.43;;;;;;;14.55;90.05;97584.00;5053490;28;20184;-76
2024/01/07 10:55:11;;;;;;;20.03;14.47;;;;;;;14.42;90.07;97520.44;5053005;28;20688;-76
2024/01/07 10:57:45;;;;;;;19.80;15.20;;;;;;;15.03;89.11;97586.09;5053141;28;20204;-76
2024/01/07 11:00:18;;;;;;;19.63;15.47;;;;;;;15.27;88.37;97583.63;5052866;28;20220;-74
2024/01/07 11:03:03;;;;;;;17.80;12.80;;;;;;;15.36;86.25;97585.50;5052964;28;20500;-76
2024/01/07 11:05:35;;;;;;;17.03;11.97;;;;;;;15.48;85.11;97575.31;5052669;28;20193;-76
2024/01/07 11:08:07;;;;;;;15.53;10.97;;;;;;;15.72;84.04;97589.66;5052447;28;20193;-75
2024/01/07 11:10:40;;;;;;;11.13;10.13;;;;;;;15.92;82.12;97598.66;5052708;28;20195;-73
2024/01/07 11:13:09;;;;;;;14.27;9.23;;;;;;;16.01;81.12;97597.00;5052372;28;20245;-74
2024/01/07 11:15:54;;;;;;;11.43;9.13;;;;;;;16.18;79.66;97598.25;5052317;28;20192;-74
2024/01/07 11:18:22;;;;;;;10.93;9.53;;;;;;;16.12;78.63;97577.91;5052567;28;20227;-76